createdAt,value
2023-02-12T00:01:15.126Z,6.67
2023-02-12T00:02:39.818Z,6.64
2023-02-12T00:04:11.726Z,6.66
2023-02-12T00:05:51.743Z,6.66
2023-02-12T00:07:23.563Z,6.64
2023-02-12T00:08:48.042Z,6.68
2023-02-12T00:10:19.697Z,6.65
2023-02-12T00:11:43.808Z,6.63
2023-02-12T00:13:10.447Z,6.68
2023-02-12T00:14:34.828Z,6.66
2023-02-12T00:15:56.529Z,6.67
2023-02-12T00:17:19.714Z,6.65
2023-02-12T00:18:40.985Z,6.67
2023-02-12T00:20:04.107Z,6.71
2023-02-12T00:21:26.241Z,6.68
2023-02-12T00:22:48.462Z,6.68
2023-02-12T00:24:14.003Z,6.67
2023-02-12T00:25:37.479Z,6.68
2023-02-12T00:27:00.010Z,6.68
2023-02-12T00:28:22.208Z,6.71
2023-02-12T00:29:45.827Z,6.67
2023-02-12T00:31:08.428Z,6.68
2023-02-12T00:32:30.877Z,6.65
2023-02-12T00:34:03.427Z,6.67
2023-02-12T00:35:25.126Z,6.63
2023-02-12T00:36:47.915Z,6.68
2023-02-12T00:38:11.253Z,6.69
2023-02-12T00:39:38.214Z,6.71
2023-02-12T00:40:59.352Z,6.71
2023-02-12T00:42:21.816Z,6.72
2023-02-12T00:43:43.413Z,6.71
2023-02-12T00:45:08.652Z,6.72
2023-02-12T00:46:30.986Z,6.71
2023-02-12T00:47:55.109Z,6.74
2023-02-12T00:49:19.218Z,6.67
2023-02-12T00:50:44.246Z,6.72
2023-02-12T00:52:07.227Z,6.70
2023-02-12T00:53:29.013Z,6.68
2023-02-12T00:54:51.475Z,6.72
2023-02-12T00:56:21.678Z,6.73
2023-02-12T00:57:44.636Z,6.74
2023-02-12T00:59:06.082Z,6.74
2023-02-12T01:00:31.959Z,6.68
2023-02-12T01:01:56.748Z,6.74
2023-02-12T01:03:18.620Z,6.74
2023-02-12T01:04:43.929Z,6.73
2023-02-12T01:06:09.190Z,6.73
2023-02-12T01:07:33.189Z,6.72
2023-02-12T01:08:55.391Z,6.73
2023-02-12T01:10:18.526Z,6.72
2023-02-12T01:11:45.888Z,6.72
2023-02-12T01:13:08.314Z,6.71
2023-02-12T01:14:32.662Z,6.72
2023-02-12T01:16:10.918Z,6.67
2023-02-12T01:17:33.708Z,6.66
2023-02-12T01:18:57.289Z,6.75
2023-02-12T01:20:25.823Z,6.74
2023-02-12T01:21:48.600Z,6.74
2023-02-12T01:23:13.640Z,6.70
2023-02-12T01:24:37.306Z,6.75
2023-02-12T01:26:02.972Z,6.70
2023-02-12T01:27:25.285Z,6.68
2023-02-12T01:28:51.930Z,6.75
2023-02-12T01:30:22.357Z,6.76
2023-02-12T01:31:47.906Z,6.71
2023-02-12T01:33:11.260Z,6.68
2023-02-12T01:34:33.709Z,6.71
2023-02-12T01:35:55.548Z,6.70
2023-02-12T01:37:18.291Z,6.71
2023-02-12T01:38:39.976Z,6.67
2023-02-12T01:40:06.466Z,6.65
2023-02-12T01:41:35.937Z,6.70
2023-02-12T01:43:05.463Z,6.68
2023-02-12T01:44:30.934Z,6.70
2023-02-12T01:45:54.271Z,6.69
2023-02-12T01:47:23.787Z,6.63
2023-02-12T01:48:48.535Z,6.70
2023-02-12T01:50:14.577Z,6.72
2023-02-12T01:51:40.069Z,6.70
2023-02-12T01:53:04.604Z,6.65
2023-02-12T01:54:28.459Z,6.65
2023-02-12T01:55:54.200Z,6.74
2023-02-12T01:57:21.306Z,6.67
2023-02-12T01:58:46.367Z,6.73
2023-02-12T02:00:12.935Z,6.74
2023-02-12T02:01:38.848Z,6.75
2023-02-12T02:03:04.906Z,6.72
2023-02-12T02:04:33.921Z,6.76
2023-02-12T02:05:59.549Z,6.72
2023-02-12T02:07:21.902Z,6.71
2023-02-12T02:08:46.074Z,6.74
2023-02-12T02:10:10.133Z,6.75
2023-02-12T02:11:50.089Z,6.75
2023-02-12T02:13:29.994Z,6.74
2023-02-12T02:14:53.968Z,6.75
2023-02-12T02:16:21.182Z,6.75
2023-02-12T02:17:53.185Z,6.69
2023-02-12T02:19:32.681Z,6.76
2023-02-12T02:21:27.724Z,6.74
2023-02-12T02:23:01.981Z,6.74
2023-02-12T02:25:05.709Z,6.74
2023-02-12T02:26:51.022Z,6.73
2023-02-12T02:28:36.941Z,6.74
2023-02-12T02:30:45.495Z,6.73
2023-02-12T02:32:11.962Z,6.73
2023-02-12T02:33:44.758Z,6.72
2023-02-12T02:35:11.997Z,6.74
2023-02-12T02:36:59.669Z,6.73
2023-02-12T02:38:29.764Z,6.73
2023-02-12T02:39:59.990Z,6.76
2023-02-12T02:41:30.599Z,6.72
2023-02-12T02:42:57.459Z,6.77
2023-02-12T02:44:26.458Z,6.74
2023-02-12T02:45:52.002Z,6.78
2023-02-12T02:47:17.502Z,6.78
2023-02-12T02:48:44.522Z,6.77
2023-02-12T02:50:10.902Z,6.76
2023-02-12T02:51:37.616Z,6.81
2023-02-12T02:53:04.105Z,6.76
2023-02-12T02:54:33.065Z,6.82
2023-02-12T02:56:00.316Z,6.81
2023-02-12T02:57:28.775Z,6.85
2023-02-12T02:58:57.494Z,6.85
2023-02-12T03:00:22.029Z,6.87
2023-02-12T03:01:53.549Z,6.88
2023-02-12T03:03:25.419Z,6.86
2023-02-12T03:04:52.620Z,6.88
2023-02-12T03:06:19.878Z,6.87
2023-02-12T03:07:47.199Z,6.90
2023-02-12T03:09:18.461Z,6.88
2023-02-12T03:10:46.537Z,6.87
2023-02-12T03:12:13.758Z,6.89
2023-02-12T03:13:40.585Z,6.92
2023-02-12T03:15:07.731Z,6.92
2023-02-12T03:16:33.289Z,6.91
2023-02-12T03:18:00.273Z,6.94
2023-02-12T03:19:36.678Z,6.95
2023-02-12T03:21:02.854Z,6.94
2023-02-12T03:22:29.711Z,6.87
2023-02-12T03:23:56.976Z,6.96
2023-02-12T03:25:24.188Z,6.93
2023-02-12T03:26:52.155Z,6.97
2023-02-12T03:28:25.160Z,6.96
2023-02-12T03:29:48.105Z,6.92
2023-02-12T03:31:20.374Z,6.97
2023-02-12T03:32:51.582Z,6.97
2023-02-12T03:34:23.751Z,6.96
2023-02-12T03:35:56.788Z,6.95
2023-02-12T03:37:22.777Z,6.92
2023-02-12T03:38:53.708Z,6.97
2023-02-12T03:40:23.667Z,6.91
2023-02-12T03:41:51.232Z,6.92
2023-02-12T03:43:23.599Z,6.92
2023-02-12T03:44:59.167Z,6.96
2023-02-12T03:46:26.857Z,6.97
2023-02-12T03:47:59.600Z,6.97
2023-02-12T03:49:30.170Z,6.97
2023-02-12T03:50:58.698Z,6.96
2023-02-12T03:52:22.397Z,6.92
2023-02-12T03:53:45.018Z,6.93
2023-02-12T03:55:10.495Z,6.95
2023-02-12T03:56:37.997Z,6.92
2023-02-12T03:58:09.135Z,6.89
2023-02-12T03:59:37.404Z,6.86
2023-02-12T04:01:05.693Z,6.90
2023-02-12T04:02:32.368Z,6.93
2023-02-12T04:03:54.345Z,6.92
2023-02-12T04:05:26.946Z,6.88
2023-02-12T04:06:50.920Z,6.93
2023-02-12T04:08:14.528Z,6.93
2023-02-12T04:09:36.285Z,6.93
2023-02-12T04:11:07.917Z,6.92
2023-02-12T04:12:44.586Z,6.89
2023-02-12T04:14:19.864Z,6.87
2023-02-12T04:15:58.744Z,6.90
2023-02-12T04:17:29.497Z,6.91
2023-02-12T04:18:52.326Z,6.92
2023-02-12T04:20:28.465Z,6.88
2023-02-12T04:22:03.416Z,6.90
2023-02-12T04:23:45.864Z,6.83
2023-02-12T04:25:22.756Z,6.87
2023-02-12T04:26:58.166Z,6.87
2023-02-12T04:28:28.722Z,6.84
2023-02-12T04:29:56.338Z,6.90
2023-02-12T04:31:26.981Z,6.89
2023-02-12T04:32:54.493Z,6.90
2023-02-12T04:34:22.444Z,6.90
2023-02-12T04:35:50.312Z,6.88
2023-02-12T04:37:20.967Z,6.87
2023-02-12T04:38:47.138Z,6.91
2023-02-12T04:40:15.355Z,6.92
2023-02-12T04:41:39.325Z,6.92
2023-02-12T04:43:04.387Z,6.93
2023-02-12T04:44:30.386Z,6.90
2023-02-12T04:45:53.145Z,6.94
2023-02-12T04:47:17.776Z,6.95
2023-02-12T04:48:53.689Z,6.95
2023-02-12T04:50:15.727Z,6.94
2023-02-12T04:51:40.993Z,6.95
2023-02-12T04:53:09.461Z,6.97
2023-02-12T04:54:33.914Z,6.97
2023-02-12T04:55:56.688Z,6.93
2023-02-12T04:57:20.822Z,6.96
2023-02-12T04:58:44.755Z,6.96
2023-02-12T05:00:11.277Z,6.95
2023-02-12T05:01:35.391Z,6.95
2023-02-12T05:03:00.049Z,6.99
2023-02-12T05:04:32.024Z,6.97
2023-02-12T05:05:59.525Z,6.99
2023-02-12T05:07:24.822Z,7.00
2023-02-12T05:08:49.856Z,7.00
2023-02-12T05:10:12.891Z,7.01
2023-02-12T05:11:34.299Z,7.00
2023-02-12T05:13:00.550Z,6.99
2023-02-12T05:14:25.553Z,7.02
2023-02-12T05:15:46.860Z,7.00
2023-02-12T05:17:09.231Z,7.00
2023-02-12T05:18:33.786Z,6.99
2023-02-12T05:19:55.541Z,6.98
2023-02-12T05:21:17.541Z,6.94
2023-02-12T05:22:39.791Z,6.98
2023-02-12T05:24:04.271Z,6.96
2023-02-12T05:25:29.059Z,6.99
2023-02-12T05:26:52.251Z,6.98
2023-02-12T05:28:15.812Z,6.99
2023-02-12T05:29:40.568Z,6.94
2023-02-12T05:31:02.789Z,7.01
2023-02-12T05:32:25.494Z,7.00
2023-02-12T05:33:51.334Z,7.00
2023-02-12T05:35:15.688Z,7.00
2023-02-12T05:36:38.181Z,7.00
2023-02-12T05:38:01.428Z,6.95
2023-02-12T05:39:25.529Z,6.98
2023-02-12T05:40:52.925Z,7.01
2023-02-12T05:42:15.309Z,7.01
2023-02-12T05:43:36.903Z,7.02
2023-02-12T05:44:59.566Z,7.01
2023-02-12T05:46:22.562Z,7.00
2023-02-12T05:47:45.391Z,6.99
2023-02-12T05:49:08.082Z,7.03
2023-02-12T05:50:33.142Z,6.98
2023-02-12T05:51:55.408Z,7.02
2023-02-12T05:53:16.715Z,7.02
2023-02-12T05:54:40.639Z,7.02
2023-02-12T05:56:11.201Z,7.02
2023-02-12T05:57:34.937Z,7.00
2023-02-12T05:59:07.019Z,7.02
2023-02-12T06:00:35.150Z,7.02
2023-02-12T06:02:04.020Z,7.02
2023-02-12T06:03:25.450Z,7.02
2023-02-12T06:04:48.743Z,7.02
2023-02-12T06:06:10.872Z,6.98
2023-02-12T06:07:33.582Z,7.01
2023-02-12T06:09:02.421Z,7.01
2023-02-12T06:10:26.727Z,7.02
2023-02-12T06:11:49.054Z,6.99
2023-02-12T06:13:22.818Z,6.96
2023-02-12T06:14:45.302Z,7.01
2023-02-12T06:16:06.474Z,6.99
2023-02-12T06:17:29.757Z,7.01
2023-02-12T06:18:51.844Z,6.92
2023-02-12T06:20:14.719Z,6.99
2023-02-12T06:21:36.985Z,7.00
2023-02-12T06:22:59.675Z,6.98
2023-02-12T06:24:22.285Z,7.00
2023-02-12T06:25:47.560Z,6.99
2023-02-12T06:27:10.213Z,6.97
2023-02-12T06:28:33.673Z,6.94
2023-02-12T06:29:58.433Z,6.98
2023-02-12T06:31:25.800Z,7.01
2023-02-12T06:32:51.359Z,7.02
2023-02-12T06:34:19.314Z,6.99
2023-02-12T06:35:42.046Z,7.07
2023-02-12T06:37:14.019Z,7.01
2023-02-12T06:38:35.799Z,7.04
2023-02-12T06:39:59.914Z,7.07
2023-02-12T06:41:24.548Z,7.07
2023-02-12T06:42:45.872Z,7.02
2023-02-12T06:44:09.023Z,7.09
2023-02-12T06:45:32.201Z,7.08
2023-02-12T06:46:54.755Z,7.05
2023-02-12T06:48:17.114Z,7.11
2023-02-12T06:49:46.298Z,7.06
2023-02-12T06:51:12.354Z,7.14
2023-02-12T06:52:33.977Z,7.16
2023-02-12T06:53:57.598Z,7.17
2023-02-12T06:55:19.614Z,7.15
2023-02-12T06:56:48.648Z,7.19
2023-02-12T06:58:10.863Z,7.20
2023-02-12T06:59:37.319Z,7.21
2023-02-12T07:01:15.097Z,7.18
2023-02-12T07:02:40.147Z,7.19
2023-02-12T07:04:06.255Z,7.23
2023-02-12T07:07:50.083Z,7.19
2023-02-12T07:09:26.711Z,7.25
2023-02-12T07:10:53.901Z,7.27
2023-02-12T07:12:29.404Z,7.33
2023-02-12T07:13:57.525Z,7.40
2023-02-12T07:15:36.849Z,7.44
2023-02-12T07:17:11.329Z,7.44
2023-02-12T07:18:40.910Z,7.44
2023-02-12T07:20:13.036Z,7.47
2023-02-12T07:21:36.988Z,7.46
2023-02-12T07:23:03.100Z,7.48
2023-02-12T07:26:56.358Z,7.51
2023-02-12T07:28:33.745Z,7.54
2023-02-12T07:30:20.180Z,7.57
2023-02-12T07:31:58.239Z,7.55
2023-02-12T07:33:26.373Z,7.63
2023-02-12T07:34:49.071Z,7.63
2023-02-12T07:36:17.630Z,7.70
2023-02-12T07:37:41.980Z,7.67
2023-02-12T07:39:33.186Z,7.76
2023-02-12T07:40:57.654Z,7.77
2023-02-12T07:42:36.169Z,7.74
2023-02-12T07:44:16.692Z,7.79
2023-02-12T07:45:41.248Z,7.86
2023-02-12T07:47:39.504Z,7.89
2023-02-12T07:49:19.365Z,7.97
2023-02-12T07:51:13.538Z,7.96
2023-02-12T07:52:44.704Z,7.96
2023-02-12T07:54:14.584Z,8.01
2023-02-12T07:55:37.098Z,8.01
2023-02-12T07:57:02.731Z,8.03
2023-02-12T07:58:27.478Z,8.02
2023-02-12T08:00:00.102Z,7.99
2023-02-12T08:01:28.972Z,7.99
2023-02-12T08:03:00.446Z,8.05
2023-02-12T08:04:27.325Z,8.01
2023-02-12T08:06:00.361Z,8.09
2023-02-12T08:07:42.556Z,8.02
2023-02-12T08:11:51.360Z,8.07
2023-02-12T08:13:20.246Z,8.10
2023-02-12T08:14:48.819Z,8.11
2023-02-12T08:16:34.830Z,8.18
2023-02-12T08:18:08.951Z,8.19
2023-02-12T08:19:39.092Z,8.20
2023-02-12T08:21:16.381Z,8.25
2023-02-12T08:22:38.980Z,8.27
2023-02-12T08:24:03.176Z,8.30
2023-02-12T08:25:26.983Z,8.25
2023-02-12T08:26:56.987Z,8.33
2023-02-12T08:28:19.658Z,8.32
2023-02-12T08:29:47.012Z,8.35
2023-02-12T08:31:23.971Z,8.41
2023-02-12T08:32:58.161Z,8.45
2023-02-12T08:34:35.505Z,8.45
2023-02-12T08:36:08.557Z,8.47
2023-02-12T08:37:47.541Z,8.48
2023-02-12T08:39:11.562Z,8.50
2023-02-12T08:40:38.085Z,8.52
2023-02-12T08:42:08.613Z,8.53
2023-02-12T08:43:33.410Z,8.58
2023-02-12T08:44:59.059Z,8.65
2023-02-12T08:46:55.945Z,8.75
2023-02-12T08:50:25.647Z,8.75
2023-02-12T08:57:31.741Z,8.79
2023-02-12T08:59:37.045Z,8.90
2023-02-12T09:01:10.993Z,9.13
2023-02-12T09:02:50.471Z,9.22
2023-02-12T09:04:23.965Z,9.27
2023-02-12T09:06:08.824Z,9.45
2023-02-12T09:07:33.511Z,9.45
2023-02-12T09:08:59.834Z,9.56
2023-02-12T09:10:27.489Z,9.63
2023-02-12T09:11:53.433Z,9.75
2023-02-12T09:13:20.628Z,9.73
2023-02-12T09:14:43.828Z,9.80
2023-02-12T09:16:21.047Z,9.90
2023-02-12T09:17:51.373Z,10.06
2023-02-12T09:19:37.161Z,10.13
2023-02-12T09:21:06.114Z,10.38
2023-02-12T09:22:49.774Z,10.45
2023-02-12T09:24:21.535Z,10.61
2023-02-12T09:25:52.069Z,10.71
2023-02-12T09:27:21.906Z,10.86
2023-02-12T09:29:00.834Z,10.86
2023-02-12T09:39:50.143Z,11.21
2023-02-12T09:41:45.161Z,11.36
2023-02-12T09:43:33.407Z,11.35
2023-02-12T09:45:08.877Z,11.38
2023-02-12T09:46:42.284Z,11.42
2023-02-12T09:48:37.608Z,11.43
2023-02-12T09:50:29.400Z,11.44
2023-02-12T09:52:28.625Z,11.37
2023-02-12T09:54:06.241Z,11.36
2023-02-12T09:55:36.006Z,11.36
2023-02-12T09:57:39.023Z,11.40
2023-02-12T09:59:19.147Z,11.50
2023-02-12T10:00:49.435Z,11.60
2023-02-12T10:02:19.344Z,11.72
2023-02-12T10:03:57.327Z,12.00
2023-02-12T10:05:33.831Z,12.21
2023-02-12T10:12:48.198Z,12.48
2023-02-12T10:15:08.075Z,12.54
2023-02-12T10:16:48.015Z,12.38
2023-02-12T10:18:38.601Z,12.36
2023-02-12T10:20:35.044Z,12.19
2023-02-12T10:22:13.998Z,12.03
2023-02-12T10:24:14.588Z,11.95
2023-02-12T10:25:47.112Z,11.99
2023-02-12T10:27:23.872Z,12.00
2023-02-12T10:29:17.496Z,12.09
2023-02-12T10:30:54.963Z,12.22
2023-02-12T10:32:29.186Z,12.42
2023-02-12T10:34:26.227Z,12.51
2023-02-12T10:36:11.624Z,12.65
2023-02-12T10:37:48.297Z,12.64
2023-02-12T10:39:58.148Z,12.86
2023-02-12T10:43:17.344Z,13.04
2023-02-12T10:45:05.239Z,13.06
2023-02-12T10:46:32.748Z,13.15
2023-02-12T10:48:43.075Z,13.24
2023-02-12T10:50:56.559Z,13.31
2023-02-12T10:53:12.279Z,13.35
2023-02-12T10:54:55.541Z,13.52
2023-02-12T10:56:23.329Z,13.60
2023-02-12T10:58:03.586Z,13.73
2023-02-12T10:59:33.026Z,13.80
2023-02-12T11:03:41.150Z,13.80
2023-02-12T11:07:56.381Z,13.93
2023-02-12T11:09:37.558Z,14.05
2023-02-12T11:18:05.742Z,13.83
2023-02-12T11:21:51.066Z,13.85
2023-02-12T11:23:39.744Z,13.79
2023-02-12T11:25:20.932Z,13.60
2023-02-12T11:26:45.478Z,13.37
2023-02-12T11:28:21.175Z,13.21
2023-02-12T11:29:51.794Z,12.97
2023-02-12T11:31:24.994Z,12.77
2023-02-12T11:34:14.875Z,12.58
2023-02-12T11:36:13.737Z,12.32
2023-02-12T11:37:50.160Z,12.22
2023-02-12T11:39:22.909Z,12.09
2023-02-12T11:40:57.541Z,12.08
2023-02-12T11:43:04.514Z,12.06
2023-02-12T11:44:50.065Z,12.11
2023-02-12T11:46:21.318Z,12.17
2023-02-12T11:47:46.434Z,12.17
2023-02-12T11:49:11.926Z,12.13
2023-02-12T11:50:43.710Z,12.10
2023-02-12T11:54:14.324Z,12.19
2023-02-12T11:55:52.938Z,12.28
2023-02-12T11:59:46.878Z,12.63
2023-02-12T12:06:49.303Z,12.77
2023-02-12T12:08:51.435Z,12.70
2023-02-12T12:13:03.731Z,12.72
2023-02-12T12:15:00.802Z,12.71
2023-02-12T12:21:40.532Z,12.54
2023-02-12T12:24:13.988Z,12.38
2023-02-12T12:31:18.229Z,11.94
2023-02-12T12:33:21.507Z,11.88
2023-02-12T12:35:00.391Z,11.96
2023-02-12T12:39:50.978Z,11.93
2023-02-12T12:41:36.221Z,11.87
2023-02-12T12:43:25.458Z,11.76
2023-02-12T12:45:16.281Z,11.60
2023-02-12T12:47:04.980Z,11.54
2023-02-12T12:48:53.815Z,11.40
2023-02-12T12:50:37.614Z,11.28
2023-02-12T12:53:08.423Z,11.09
2023-02-12T12:54:58.500Z,11.02
2023-02-12T12:57:08.472Z,11.11
2023-02-12T12:59:13.091Z,11.13
2023-02-12T13:01:23.025Z,11.18
2023-02-12T13:03:37.970Z,11.08
2023-02-12T13:06:01.996Z,10.98
2023-02-12T13:07:54.009Z,10.98
2023-02-12T13:10:04.755Z,10.95
2023-02-12T13:12:16.704Z,10.90
2023-02-12T13:14:11.406Z,10.86
2023-02-12T13:16:47.596Z,10.87
2023-02-12T13:18:41.430Z,10.96
2023-02-12T13:20:23.800Z,11.06
2023-02-12T13:22:16.084Z,11.08
2023-02-12T13:23:55.728Z,11.00
2023-02-12T13:25:37.382Z,11.05
2023-02-12T13:27:08.407Z,11.14
2023-02-12T13:28:44.057Z,11.19
2023-02-12T13:30:21.677Z,11.18
2023-02-12T13:31:51.177Z,11.12
2023-02-12T13:33:25.995Z,11.09
2023-02-12T13:34:56.485Z,11.06
2023-02-12T13:36:23.616Z,11.00
2023-02-12T13:37:51.632Z,10.94
2023-02-12T13:41:25.192Z,10.94
2023-02-12T13:43:41.913Z,10.94
2023-02-12T13:45:38.295Z,11.01
2023-02-12T13:47:14.666Z,11.07
2023-02-12T13:49:07.564Z,11.03
2023-02-12T13:50:45.077Z,11.02
2023-02-12T13:52:17.622Z,10.98
2023-02-12T13:53:59.729Z,11.01
2023-02-12T13:55:36.249Z,11.03
2023-02-12T13:57:32.810Z,11.11
2023-02-12T13:59:01.708Z,11.08
2023-02-12T14:01:19.039Z,11.14
2023-02-12T14:02:51.981Z,11.20
2023-02-12T14:04:45.864Z,11.18
2023-02-12T14:06:28.651Z,11.23
2023-02-12T14:07:58.157Z,11.21
2023-02-12T14:09:32.571Z,11.21
2023-02-12T14:11:27.809Z,11.20
2023-02-12T14:13:25.703Z,11.19
2023-02-12T14:15:53.973Z,11.18
2023-02-12T14:17:55.227Z,11.16
2023-02-12T14:19:58.059Z,11.22
2023-02-12T14:21:46.404Z,11.18
2023-02-12T14:23:34.831Z,11.09
2023-02-12T14:25:03.354Z,11.13
2023-02-12T14:26:38.603Z,11.13
2023-02-12T14:28:14.084Z,11.00
2023-02-12T14:29:39.896Z,11.01
2023-02-12T14:31:33.063Z,10.97
2023-02-12T14:33:28.180Z,10.78
2023-02-12T14:34:55.574Z,10.83
2023-02-12T14:37:03.738Z,10.69
2023-02-12T14:39:07.231Z,10.72
2023-02-12T14:40:55.262Z,10.69
2023-02-12T14:42:59.079Z,10.61
2023-02-12T14:48:17.349Z,10.49
2023-02-12T14:49:50.539Z,10.46
2023-02-12T14:51:21.208Z,10.42
2023-02-12T14:53:02.224Z,10.37
2023-02-12T14:55:09.979Z,10.37
2023-02-12T14:56:57.595Z,10.35
2023-02-12T14:58:31.605Z,10.31
2023-02-12T15:00:34.923Z,10.24
2023-02-12T15:02:05.707Z,10.27
2023-02-12T15:03:43.594Z,10.19
2023-02-12T15:05:22.829Z,10.14
2023-02-12T15:09:13.645Z,10.04
2023-02-12T15:10:43.484Z,10.01
2023-02-12T15:14:24.084Z,9.92
2023-02-12T15:15:53.838Z,9.88
2023-02-12T15:17:43.014Z,9.86
2023-02-12T15:19:23.266Z,9.89
2023-02-12T15:20:55.960Z,9.79
2023-02-12T15:22:32.319Z,9.79
2023-02-12T15:24:23.838Z,9.74
2023-02-12T15:25:52.148Z,9.77
2023-02-12T15:27:25.036Z,9.69
2023-02-12T15:29:15.517Z,9.68
2023-02-12T15:30:49.265Z,9.65
2023-02-12T15:32:24.217Z,9.58
2023-02-12T15:33:50.562Z,9.57
2023-02-12T15:35:29.356Z,9.58
2023-02-12T15:36:52.333Z,9.53
2023-02-12T15:38:24.026Z,9.55
2023-02-12T15:39:52.306Z,9.52
2023-02-12T15:41:37.848Z,9.52
2023-02-12T15:43:14.845Z,9.46
2023-02-12T15:44:45.298Z,9.37
2023-02-12T15:47:11.931Z,9.38
2023-02-12T15:50:59.465Z,9.20
2023-02-12T15:52:24.958Z,9.21
2023-02-12T15:53:49.784Z,9.15
2023-02-12T15:55:18.474Z,9.18
2023-02-12T15:56:45.296Z,9.16
2023-02-12T15:58:23.631Z,9.10
2023-02-12T15:59:57.981Z,9.10
2023-02-12T16:01:24.986Z,9.06
2023-02-12T16:02:54.554Z,8.98
2023-02-12T16:04:19.832Z,8.97
2023-02-12T16:05:42.795Z,8.99
2023-02-12T16:07:06.524Z,8.98
2023-02-12T16:08:55.614Z,8.91
2023-02-12T16:10:22.422Z,8.97
2023-02-12T16:11:44.583Z,8.92
2023-02-12T16:13:23.615Z,8.89
2023-02-12T16:14:54.177Z,8.93
2023-02-12T16:16:45.395Z,8.84
2023-02-12T16:18:18.956Z,8.87
2023-02-12T16:20:23.461Z,8.84
2023-02-12T16:21:51.862Z,8.84
2023-02-12T16:23:18.481Z,8.86
2023-02-12T16:24:47.405Z,8.80
2023-02-12T16:26:44.934Z,8.76
2023-02-12T16:28:16.609Z,8.81
2023-02-12T16:29:47.605Z,8.76
2023-02-12T16:31:18.004Z,8.80
2023-02-12T16:32:50.784Z,8.80
2023-02-12T16:34:28.714Z,8.76
2023-02-12T16:36:06.872Z,8.72
2023-02-12T16:37:59.852Z,8.67
2023-02-12T16:40:24.157Z,8.72
2023-02-12T16:42:25.026Z,8.68
2023-02-12T16:43:48.425Z,8.66
2023-02-12T16:45:51.872Z,8.60
2023-02-12T16:47:25.672Z,8.56
2023-02-12T16:51:35.758Z,8.35
2023-02-12T16:56:40.212Z,8.15
2023-02-12T16:58:33.066Z,8.11
2023-02-12T17:00:05.861Z,7.98
2023-02-12T17:01:48.636Z,7.92
2023-02-12T17:03:26.394Z,7.88
2023-02-12T17:05:15.741Z,7.82
2023-02-12T17:06:48.568Z,7.76
2023-02-12T17:08:44.615Z,7.72
2023-02-12T17:10:34.038Z,7.69
2023-02-12T17:14:39.126Z,7.59
2023-02-12T17:16:31.890Z,7.54
2023-02-12T17:18:42.773Z,7.43
2023-02-12T17:20:40.221Z,7.45
2023-02-12T17:22:54.795Z,7.42
2023-02-12T17:24:52.448Z,7.36
2023-02-12T17:26:35.817Z,7.33
2023-02-12T17:28:18.420Z,7.39
2023-02-12T17:29:48.212Z,7.36
2023-02-12T17:31:21.141Z,7.41
2023-02-12T17:33:21.963Z,7.41
2023-02-12T17:35:13.855Z,7.47
2023-02-12T17:37:27.099Z,7.45
2023-02-12T17:40:52.723Z,7.54
2023-02-12T17:42:41.156Z,7.55
2023-02-12T17:46:18.431Z,7.55
2023-02-12T17:47:44.830Z,7.62
2023-02-12T17:49:27.202Z,7.55
2023-02-12T17:51:15.931Z,7.58
2023-02-12T17:53:03.534Z,7.62
2023-02-12T17:54:57.515Z,7.69
2023-02-12T17:56:53.772Z,7.72
2023-02-12T17:58:20.062Z,7.68
2023-02-12T18:02:22.993Z,7.78
2023-02-12T18:04:40.411Z,7.73
2023-02-12T18:06:10.380Z,7.82
2023-02-12T18:10:32.186Z,7.76
2023-02-12T18:12:36.879Z,7.82
2023-02-12T18:14:08.246Z,7.82
2023-02-12T18:15:44.764Z,7.83
2023-02-12T18:19:19.283Z,7.90
2023-02-12T18:21:21.021Z,7.89
2023-02-12T18:23:20.025Z,7.82
2023-02-12T18:24:55.546Z,7.90
2023-02-12T18:26:33.929Z,7.86
2023-02-12T18:28:12.696Z,7.89
2023-02-12T18:29:41.192Z,7.91
2023-02-12T18:31:08.823Z,7.89
2023-02-12T18:32:59.236Z,7.91
2023-02-12T18:34:56.059Z,7.91
2023-02-12T18:36:29.581Z,7.91
2023-02-12T18:37:53.269Z,7.98
2023-02-12T18:40:39.102Z,7.95
2023-02-12T18:43:04.070Z,7.95
2023-02-12T18:44:37.663Z,7.95
2023-02-12T18:46:34.635Z,7.94
2023-02-12T18:48:33.516Z,7.97
2023-02-12T18:50:42.971Z,8.01
2023-02-12T18:52:22.188Z,7.98
2023-02-12T18:54:21.989Z,8.01
2023-02-12T18:55:51.380Z,7.95
2023-02-12T18:57:22.086Z,7.97
2023-02-12T18:59:42.601Z,8.03
2023-02-12T19:01:21.697Z,8.03
2023-02-12T19:02:51.435Z,8.00
2023-02-12T19:05:17.612Z,8.05
2023-02-12T19:06:56.604Z,7.97
2023-02-12T19:08:57.698Z,8.03
2023-02-12T19:11:03.837Z,7.96
2023-02-12T19:14:38.894Z,7.99
2023-02-12T19:14:49.305Z,7.99
2023-02-12T19:16:20.845Z,7.96
2023-02-12T19:18:01.027Z,8.03
2023-02-12T19:20:15.716Z,8.04
2023-02-12T19:22:23.021Z,8.04
2023-02-12T19:24:17.182Z,7.94
2023-02-12T19:25:48.460Z,7.93
2023-02-12T19:29:34.604Z,7.97
2023-02-12T19:31:34.110Z,8.00
2023-02-12T19:33:11.849Z,7.93
2023-02-12T19:34:42.577Z,7.95
2023-02-12T19:36:46.887Z,7.93
2023-02-12T19:38:41.918Z,7.96
2023-02-12T19:40:11.323Z,7.94
2023-02-12T19:41:41.233Z,7.99
2023-02-12T19:43:26.800Z,7.95
2023-02-12T19:45:01.844Z,7.96
2023-02-12T19:46:52.431Z,7.97
2023-02-12T19:48:25.576Z,7.97
2023-02-12T19:52:15.372Z,7.98
2023-02-12T19:53:43.125Z,8.01
2023-02-12T19:55:06.616Z,7.96
2023-02-12T19:57:18.264Z,7.91
2023-02-12T19:58:51.836Z,7.96
2023-02-12T20:00:18.515Z,7.98
2023-02-12T20:01:44.158Z,8.01
2023-02-12T20:03:17.909Z,7.99
2023-02-12T20:04:45.623Z,7.99
2023-02-12T20:06:21.616Z,7.97
2023-02-12T20:07:57.570Z,7.93
2023-02-12T20:09:30.057Z,7.97
2023-02-12T20:10:55.722Z,7.92
2023-02-12T20:12:24.078Z,7.92
2023-02-12T20:13:54.056Z,7.89
2023-02-12T20:15:17.949Z,7.95
2023-02-12T20:16:53.536Z,7.92
2023-02-12T20:18:28.139Z,7.86
2023-02-12T20:20:16.075Z,7.84
2023-02-12T20:21:48.134Z,7.92
2023-02-12T20:23:15.175Z,7.92
2023-02-12T20:24:41.891Z,7.82
2023-02-12T20:26:24.361Z,7.80
2023-02-12T20:27:51.308Z,7.85
2023-02-12T20:29:15.883Z,7.84
2023-02-12T20:31:19.537Z,7.77
2023-02-12T20:32:44.902Z,7.76
2023-02-12T20:34:16.942Z,7.73
2023-02-12T20:35:47.255Z,7.79
2023-02-12T20:37:16.601Z,7.71
2023-02-12T20:38:53.334Z,7.75
2023-02-12T20:40:20.095Z,7.77
2023-02-12T20:44:11.826Z,7.73
2023-02-12T20:44:22.891Z,7.76
2023-02-12T20:46:24.261Z,7.75
2023-02-12T20:47:52.495Z,7.67
2023-02-12T20:49:19.568Z,7.65
2023-02-12T20:50:51.971Z,7.73
2023-02-12T20:52:38.297Z,7.70
2023-02-12T20:54:07.334Z,7.69
2023-02-12T20:55:41.872Z,7.68
2023-02-12T20:57:13.166Z,7.64
2023-02-12T20:58:48.764Z,7.66
2023-02-12T21:00:21.096Z,7.63
2023-02-12T21:01:47.103Z,7.67
2023-02-12T21:03:15.691Z,7.63
2023-02-12T21:04:43.191Z,7.65
2023-02-12T21:06:24.337Z,7.68
2023-02-12T21:07:54.624Z,7.66
2023-02-12T21:09:33.787Z,7.67
2023-02-12T21:11:18.750Z,7.67
2023-02-12T21:12:49.761Z,7.69
2023-02-12T21:14:32.049Z,7.64
2023-02-12T21:16:11.678Z,7.61
2023-02-12T21:17:47.114Z,7.60
2023-02-12T21:19:14.377Z,7.60
2023-02-12T21:21:11.294Z,7.65
2023-02-12T21:22:51.890Z,7.58
2023-02-12T21:27:20.849Z,7.59
2023-02-12T21:28:47.850Z,7.50
2023-02-12T21:30:26.501Z,7.54
2023-02-12T21:31:56.346Z,7.53
2023-02-12T21:33:23.589Z,7.53
2023-02-12T21:34:48.600Z,7.51
2023-02-12T21:36:18.271Z,7.50
2023-02-12T21:37:43.172Z,7.48
2023-02-12T21:39:37.254Z,7.48
2023-02-12T21:41:18.623Z,7.52
2023-02-12T21:43:20.958Z,7.48
2023-02-12T21:44:44.964Z,7.50
2023-02-12T21:46:10.726Z,7.50
2023-02-12T21:47:38.669Z,7.51
2023-02-12T21:49:07.068Z,7.59
2023-02-12T21:50:39.786Z,7.58
2023-02-12T21:52:19.406Z,7.57
2023-02-12T21:53:45.422Z,7.61
2023-02-12T21:55:19.354Z,7.55
2023-02-12T21:56:47.227Z,7.61
2023-02-12T21:58:22.142Z,7.57
2023-02-12T21:59:57.318Z,7.63
2023-02-12T22:01:24.871Z,7.66
2023-02-12T22:03:08.706Z,7.57
2023-02-12T22:04:31.757Z,7.63
2023-02-12T22:06:29.187Z,7.66
2023-02-12T22:08:05.943Z,7.59
2023-02-12T22:09:45.425Z,7.65
2023-02-12T22:12:03.378Z,7.63
2023-02-12T22:13:26.093Z,7.66
2023-02-12T22:14:57.994Z,7.64
2023-02-12T22:16:31.276Z,7.61
2023-02-12T22:17:59.565Z,7.64
2023-02-12T22:19:22.564Z,7.64
2023-02-12T22:20:46.357Z,7.65
2023-02-12T22:22:13.458Z,7.63
2023-02-12T22:23:46.546Z,7.63
2023-02-12T22:25:17.967Z,7.59
2023-02-12T22:26:42.738Z,7.60
2023-02-12T22:28:16.670Z,7.62
2023-02-12T22:29:45.256Z,7.66
2023-02-12T22:31:24.933Z,7.67
2023-02-12T22:33:01.205Z,7.64
2023-02-12T22:34:37.545Z,7.67
2023-02-12T22:36:05.553Z,7.66
2023-02-12T22:37:42.044Z,7.67
2023-02-12T22:39:06.744Z,7.58
2023-02-12T22:40:57.205Z,7.65
2023-02-12T22:42:23.071Z,7.58
2023-02-12T22:43:54.248Z,7.59
2023-02-12T22:45:35.446Z,7.58
2023-02-12T22:47:11.000Z,7.61
2023-02-12T22:48:33.259Z,7.58
2023-02-12T22:50:05.509Z,7.58
2023-02-12T22:52:04.192Z,7.62
2023-02-12T22:53:30.840Z,7.65
2023-02-12T22:54:58.335Z,7.62